createdAt,value
2019-05-10T00:00:40.763Z,99047.06
2019-05-10T00:06:00.876Z,99052.96
2019-05-10T00:11:32.332Z,99055.98
2019-05-10T00:16:34.773Z,99060.56
2019-05-10T00:21:36.829Z,99059.84
2019-05-10T00:26:38.913Z,99058.66
2019-05-10T00:31:41.024Z,99062.09
2019-05-10T00:36:43.102Z,99068.11
2019-05-10T00:41:45.149Z,99069.61
2019-05-10T00:46:47.391Z,99067.75
2019-05-10T00:51:49.472Z,99071.14
2019-05-10T00:56:51.485Z,99068.60
2019-05-10T01:01:53.580Z,99076.70
2019-05-10T01:06:56.671Z,99064.34
2019-05-10T01:11:58.789Z,99068.60
2019-05-10T01:17:00.896Z,99075.20
2019-05-10T01:22:02.951Z,99085.44
2019-05-10T01:27:05.001Z,99088.64
2019-05-10T01:32:07.146Z,99090.45
2019-05-10T01:37:09.200Z,99093.52
2019-05-10T01:42:11.282Z,99095.48
2019-05-10T01:47:13.329Z,99107.80
2019-05-10T01:52:15.464Z,99109.31
2019-05-10T01:57:17.535Z,99121.81
2019-05-10T02:02:19.645Z,99127.16
2019-05-10T02:07:21.724Z,99135.55
2019-05-10T02:12:23.758Z,99140.37
2019-05-10T02:17:25.887Z,99147.17
2019-05-10T02:22:27.954Z,99153.94
2019-05-10T02:27:30.039Z,99154.69
2019-05-10T02:32:32.132Z,99148.48
2019-05-10T02:37:34.377Z,99160.99
2019-05-10T02:42:36.711Z,99164.76
2019-05-10T02:47:38.785Z,99165.37
2019-05-10T02:52:40.823Z,99170.40
2019-05-10T02:57:43.984Z,99170.20
2019-05-10T03:02:46.633Z,99178.70
2019-05-10T03:07:52.418Z,99185.59
2019-05-10T03:12:58.208Z,99197.64
2019-05-10T03:18:01.604Z,99204.54
2019-05-10T03:23:05.136Z,99202.66
2019-05-10T03:28:07.199Z,99214.25
2019-05-10T03:33:09.280Z,99221.49
2019-05-10T03:38:11.690Z,99218.84
2019-05-10T03:43:13.879Z,99230.77
2019-05-10T03:48:15.953Z,99236.36
2019-05-10T03:53:17.993Z,99244.34
2019-05-10T03:58:20.073Z,99245.61
2019-05-10T04:03:22.121Z,99251.62
2019-05-10T04:08:24.321Z,99252.45
2019-05-10T04:13:26.352Z,99253.94
2019-05-10T04:18:28.437Z,99267.73
2019-05-10T04:23:30.510Z,99272.00
2019-05-10T04:28:32.579Z,99277.23
2019-05-10T04:33:34.701Z,99280.42
2019-05-10T04:38:36.782Z,99286.60
2019-05-10T04:43:38.863Z,99294.71
2019-05-10T04:48:40.956Z,99300.02
2019-05-10T04:53:43.020Z,99302.81
2019-05-10T04:58:45.060Z,99305.22
2019-05-10T05:03:47.145Z,99318.97
2019-05-10T05:08:49.259Z,99324.77
2019-05-10T05:13:51.335Z,99330.32
2019-05-10T05:18:53.443Z,99342.55
2019-05-10T05:23:55.517Z,99352.58
2019-05-10T05:28:57.750Z,99354.09
2019-05-10T05:34:04.977Z,99359.20
2019-05-10T05:39:05.782Z,99355.25
2019-05-10T05:44:07.883Z,99365.05
2019-05-10T05:49:09.922Z,99365.71
2019-05-10T05:54:15.075Z,99369.94
2019-05-10T05:59:17.334Z,99374.05
2019-05-10T06:04:20.085Z,99372.13
2019-05-10T06:09:22.156Z,99381.27
2019-05-10T06:14:24.292Z,99388.55
2019-05-10T06:19:29.421Z,99395.41
2019-05-10T06:24:33.809Z,99393.38
2019-05-10T06:29:34.272Z,99394.55
2019-05-10T06:34:38.962Z,99394.61
2019-05-10T06:39:40.694Z,99406.48
2019-05-10T06:44:42.760Z,99412.52
2019-05-10T06:49:50.778Z,99410.57
2019-05-10T06:54:48.799Z,99411.76
2019-05-10T06:59:50.990Z,99418.11
2019-05-10T07:04:53.082Z,99422.79
2019-05-10T07:10:12.284Z,99422.30
2019-05-10T07:15:03.362Z,99426.76
2019-05-10T07:20:03.844Z,99435.17
2019-05-10T07:25:07.601Z,99429.97
2019-05-10T07:30:10.227Z,99431.66
2019-05-10T07:35:12.604Z,99433.12
2019-05-10T07:40:14.797Z,99433.70
2019-05-10T07:45:18.704Z,99436.33
2019-05-10T07:50:20.929Z,99431.52
2019-05-10T07:55:28.690Z,99434.47
2019-05-10T08:00:29.082Z,99442.80
2019-05-10T08:05:31.175Z,99447.32
2019-05-10T08:10:33.229Z,99451.17
2019-05-10T08:15:35.405Z,99451.78
2019-05-10T08:20:49.612Z,99453.69
2019-05-10T08:25:46.881Z,99458.88
2019-05-10T08:30:58.479Z,99468.00
2019-05-10T08:35:52.473Z,99461.97
2019-05-10T08:40:55.765Z,99467.13
2019-05-10T08:45:58.096Z,99464.18
2019-05-10T08:51:04.053Z,99472.80
2019-05-10T08:56:07.791Z,99477.41
2019-05-10T09:01:20.592Z,99488.73
2019-05-10T09:06:16.702Z,99490.37
2019-05-10T09:11:16.976Z,99492.80
2019-05-10T09:16:19.074Z,99503.01
2019-05-10T09:21:22.311Z,99513.65
2019-05-10T09:26:26.770Z,99520.05
2019-05-10T09:31:34.058Z,99532.39
2019-05-10T09:36:38.051Z,99536.05
2019-05-10T09:41:44.645Z,99529.78
2019-05-10T09:46:47.211Z,99538.92
2019-05-10T09:51:49.553Z,99543.42
2019-05-10T09:56:52.456Z,99539.95
2019-05-10T10:01:57.024Z,99541.88
2019-05-10T10:06:58.890Z,99556.45
2019-05-10T10:12:03.003Z,99547.39
2019-05-10T10:17:05.081Z,99560.84
2019-05-10T10:22:11.025Z,99563.57
2019-05-10T10:27:12.934Z,99575.77
2019-05-10T10:32:15.051Z,99581.31
2019-05-10T10:37:22.124Z,99567.81
2019-05-10T10:42:21.164Z,99573.99
2019-05-10T10:47:28.354Z,99570.77
2019-05-10T10:52:27.841Z,99585.16
2019-05-10T10:57:30.040Z,99587.55
2019-05-10T11:02:33.906Z,99592.08
2019-05-10T11:07:41.043Z,99592.48
2019-05-10T11:12:41.393Z,99592.22
2019-05-10T11:17:43.713Z,99595.88
2019-05-10T11:22:50.917Z,99596.89
2019-05-10T11:27:56.426Z,99605.97
2019-05-10T11:32:53.997Z,99605.17
2019-05-10T11:37:56.106Z,99609.55
2019-05-10T11:42:58.206Z,99610.39
2019-05-10T11:48:02.167Z,99617.44
2019-05-10T11:53:06.848Z,99610.36
2019-05-10T11:58:12.280Z,99615.03
2019-05-10T12:03:18.405Z,99621.35
2019-05-10T12:08:16.262Z,99623.73
2019-05-10T12:13:20.852Z,99619.96
2019-05-10T12:26:05.395Z,99625.58
2019-05-10T12:26:59.165Z,99617.77
2019-05-10T12:28:35.324Z,99611.72
2019-05-10T12:33:50.439Z,99618.84
2019-05-10T12:38:52.223Z,99618.50
2019-05-10T12:44:02.748Z,99624.07
2019-05-10T12:48:58.448Z,99633.68
2019-05-10T12:54:00.479Z,99629.61
2019-05-10T12:59:02.586Z,99639.31
2019-05-10T13:04:13.760Z,99653.86
2019-05-10T13:09:08.678Z,99668.88
2019-05-10T13:14:10.723Z,99677.69
2019-05-10T13:19:14.286Z,99688.53
2019-05-10T13:24:16.742Z,99702.53
2019-05-10T13:29:18.827Z,99700.03
2019-05-10T13:34:24.060Z,99695.07
2019-05-10T13:39:27.406Z,99708.42
2019-05-10T13:44:28.939Z,99709.56
2019-05-10T13:49:31.069Z,99706.91
2019-05-10T13:54:36.189Z,99704.75
2019-05-10T13:59:37.123Z,99706.22
2019-05-10T14:04:40.210Z,99721.15
2019-05-10T14:09:42.379Z,99725.88
2019-05-10T14:14:44.416Z,99718.11
2019-05-10T14:19:46.518Z,99725.14
2019-05-10T14:24:52.806Z,99725.28
2019-05-10T14:29:52.655Z,99736.69
2019-05-10T14:34:54.724Z,99741.89
2019-05-10T14:39:56.811Z,99744.94
2019-05-10T14:44:58.940Z,99738.97
2019-05-10T14:50:01.093Z,99729.66
2019-05-10T14:55:04.034Z,99725.53
2019-05-10T15:00:06.878Z,99718.50
2019-05-10T15:05:16.134Z,99713.16
2019-05-10T15:10:13.610Z,99716.78
2019-05-10T15:15:15.877Z,99731.73
2019-05-10T15:20:17.982Z,99735.65
2019-05-10T15:25:20.159Z,99740.77
2019-05-10T15:30:22.350Z,99745.58
2019-05-10T15:35:24.423Z,99743.58
2019-05-10T15:40:26.491Z,99751.99
2019-05-10T15:45:28.725Z,99743.33
2019-05-10T15:50:32.479Z,99741.60
2019-05-10T15:55:35.929Z,99747.62
2019-05-10T16:00:41.229Z,99737.84
2019-05-10T16:05:43.986Z,99745.83
2019-05-10T16:10:48.188Z,99752.73
2019-05-10T16:15:51.543Z,99748.48
2019-05-10T16:20:54.239Z,99754.77
2019-05-10T16:25:56.307Z,99762.88
2019-05-10T16:30:58.395Z,99765.47
2019-05-10T16:36:00.438Z,99776.14
2019-05-10T16:41:02.518Z,99773.48
2019-05-10T16:46:04.753Z,99783.08
2019-05-10T16:51:09.920Z,99791.28
2019-05-10T16:56:13.510Z,99806.45
2019-05-10T17:01:18.567Z,99823.77
2019-05-10T17:06:18.667Z,99830.03
2019-05-10T17:11:20.754Z,99846.21
2019-05-10T17:16:22.851Z,99849.60
2019-05-10T17:21:24.905Z,99859.27
2019-05-10T17:26:26.975Z,99860.15
2019-05-10T17:31:29.041Z,99865.52
2019-05-10T17:36:31.194Z,99874.75
2019-05-10T17:41:33.286Z,99878.04
2019-05-10T17:46:35.357Z,99887.01
2019-05-10T17:51:37.415Z,99887.06
2019-05-10T17:56:40.668Z,99888.45
2019-05-10T18:01:43.044Z,99900.58
2019-05-10T18:06:45.123Z,99899.63
2019-05-10T18:11:47.182Z,99899.00
2019-05-10T18:16:50.146Z,99902.09
2019-05-10T18:21:54.838Z,99906.66
2019-05-10T18:26:56.610Z,99910.41
2019-05-10T18:31:58.715Z,99905.23
2019-05-10T18:37:00.774Z,99917.64
2019-05-10T18:42:02.857Z,99907.31
2019-05-10T18:47:04.977Z,99906.23
2019-05-10T18:52:07.053Z,99903.81
2019-05-10T18:57:12.218Z,99912.06
2019-05-10T19:02:17.944Z,99920.62
2019-05-10T19:07:17.039Z,99926.25
2019-05-10T19:12:26.131Z,99939.45
2019-05-10T19:17:31.691Z,99952.00
2019-05-10T19:22:33.727Z,99959.41
2019-05-10T19:27:38.857Z,99964.39
2019-05-10T19:32:39.795Z,99968.05
2019-05-10T19:37:41.849Z,99975.67
2019-05-10T19:42:44.963Z,99976.81
2019-05-10T19:47:49.828Z,99977.19
2019-05-10T19:52:51.210Z,99981.64
2019-05-10T19:57:54.672Z,99981.34
2019-05-10T20:02:57.345Z,99973.62
2019-05-10T20:07:59.429Z,99970.33
2019-05-10T20:13:01.569Z,99989.15
2019-05-10T20:18:04.185Z,99988.52
2019-05-10T20:23:06.644Z,99993.62
2019-05-10T20:28:09.710Z,99992.97
2019-05-10T20:33:11.784Z,99991.48
2019-05-10T20:38:13.823Z,99995.13
2019-05-10T20:43:15.893Z,99991.69
2019-05-10T20:48:18.027Z,99992.52
2019-05-10T20:53:20.172Z,99984.92
2019-05-10T20:58:22.302Z,99978.86
2019-05-10T21:03:24.377Z,99981.98
2019-05-10T21:08:26.459Z,99991.35
2019-05-10T21:13:28.589Z,99982.78
2019-05-10T21:18:30.686Z,99983.29
2019-05-10T21:23:32.766Z,99972.08
2019-05-10T21:28:36.474Z,99966.83
2019-05-10T21:33:38.523Z,99967.48
2019-05-10T21:38:41.773Z,99971.25
2019-05-10T21:43:44.176Z,99978.34
2019-05-10T21:48:46.302Z,99985.09
2019-05-10T21:53:48.414Z,99993.83
2019-05-10T21:58:50.458Z,99999.91
2019-05-10T22:03:52.520Z,100007.31
2019-05-10T22:08:54.622Z,100012.77
2019-05-10T22:13:56.687Z,100024.28
2019-05-10T22:19:00.729Z,100030.70
2019-05-10T22:24:02.822Z,100028.91
2019-05-10T22:29:04.890Z,100031.98
2019-05-10T22:34:06.979Z,100024.41
2019-05-10T22:39:09.031Z,100038.53
2019-05-10T22:44:11.109Z,100037.22
2019-05-10T22:49:13.300Z,100038.89
2019-05-10T22:54:15.374Z,100046.80
2019-05-10T22:59:17.414Z,100035.75
2019-05-10T23:04:19.445Z,100024.08
2019-05-10T23:09:24.776Z,100013.20
2019-05-10T23:14:25.653Z,100018.79
2019-05-10T23:19:27.705Z,100028.19
2019-05-10T23:24:38.972Z,100040.84
2019-05-10T23:29:41.117Z,100035.25
2019-05-10T23:34:43.180Z,100037.37
2019-05-10T23:39:45.222Z,100050.86
2019-05-10T23:44:47.339Z,100046.44
2019-05-10T23:49:49.412Z,100034.26
2019-05-10T23:54:51.519Z,100007.60
2019-05-10T23:59:53.628Z,100003.80
